createdAt,value
2023-02-16T00:01:47.711Z,28.93
2023-02-16T00:04:20.652Z,27.57
2023-02-16T00:06:50.797Z,28.33
2023-02-16T00:09:19.387Z,28.63
2023-02-16T00:12:05.789Z,26.87
2023-02-16T00:14:35.948Z,27.47
2023-02-16T00:17:04.020Z,27.30
2023-02-16T00:19:36.291Z,27.67
2023-02-16T00:22:06.868Z,28.27
2023-02-16T00:24:35.429Z,26.47
2023-02-16T00:27:03.646Z,27.77
2023-02-16T00:29:33.797Z,28.23
2023-02-16T00:32:03.831Z,28.43
2023-02-16T00:34:35.137Z,27.93
2023-02-16T00:37:06.020Z,28.30
2023-02-16T00:39:34.510Z,27.73
2023-02-16T00:42:03.890Z,28.90
2023-02-16T00:44:34.936Z,29.90
2023-02-16T00:47:06.406Z,28.60
2023-02-16T00:49:34.288Z,28.87
2023-02-16T00:52:02.479Z,29.60
2023-02-16T00:54:33.004Z,28.40
2023-02-16T00:57:00.865Z,29.13
2023-02-16T00:59:28.799Z,29.60
2023-02-16T01:01:57.429Z,28.30
2023-02-16T01:04:25.431Z,29.40
2023-02-16T01:07:10.635Z,29.37
2023-02-16T01:09:57.377Z,28.37
2023-02-16T01:12:25.301Z,28.50
2023-02-16T01:14:55.833Z,29.93
2023-02-16T01:17:24.501Z,28.67
2023-02-16T01:19:52.894Z,30.10
2023-02-16T01:22:20.759Z,29.37
2023-02-16T01:24:50.021Z,28.77
2023-02-16T01:27:17.880Z,30.90
2023-02-16T01:29:45.788Z,29.30
2023-02-16T01:32:14.094Z,29.73
2023-02-16T01:34:42.557Z,29.37
2023-02-16T01:37:15.932Z,29.93
2023-02-16T01:39:43.760Z,29.27
2023-02-16T01:42:28.945Z,30.77
2023-02-16T01:44:59.878Z,27.93
2023-02-16T01:47:36.526Z,29.87
2023-02-16T01:50:15.854Z,29.43
2023-02-16T01:52:45.696Z,30.40
2023-02-16T01:55:21.122Z,29.53
2023-02-16T01:57:53.990Z,30.07
2023-02-16T02:00:28.776Z,28.87
2023-02-16T02:03:19.403Z,27.90
2023-02-16T02:05:47.530Z,27.20
2023-02-16T02:08:20.929Z,28.30
2023-02-16T02:11:01.883Z,29.13
2023-02-16T02:13:38.920Z,27.53
2023-02-16T02:16:07.938Z,28.97
2023-02-16T02:18:36.160Z,26.20
2023-02-16T02:21:41.463Z,29.33
2023-02-16T02:24:34.920Z,28.57
2023-02-16T02:27:16.336Z,28.60
2023-02-16T02:30:12.683Z,26.27
2023-02-16T02:32:59.677Z,28.10
2023-02-16T02:35:40.485Z,28.07
2023-02-16T02:38:15.893Z,29.17
2023-02-16T02:41:01.136Z,27.97
2023-02-16T02:43:36.033Z,27.77
2023-02-16T02:46:09.856Z,27.87
2023-02-16T02:48:37.723Z,28.60
2023-02-16T02:51:31.027Z,27.83
2023-02-16T02:54:20.130Z,29.60
2023-02-16T02:57:09.611Z,29.37
2023-02-16T02:59:58.437Z,29.37
2023-02-16T03:02:29.375Z,29.27
2023-02-16T03:04:59.683Z,29.27
2023-02-16T03:07:42.918Z,29.73
2023-02-16T03:10:25.541Z,27.97
2023-02-16T03:12:53.721Z,28.73
2023-02-16T03:15:25.297Z,27.73
2023-02-16T03:18:15.675Z,29.00
2023-02-16T03:21:02.585Z,28.73
2023-02-16T03:23:48.451Z,29.23
2023-02-16T03:26:34.860Z,27.13
2023-02-16T03:29:22.686Z,28.03
2023-02-16T03:31:54.760Z,28.53
2023-02-16T03:34:23.197Z,29.20
2023-02-16T03:37:00.237Z,27.80
2023-02-16T03:39:29.818Z,28.87
2023-02-16T03:41:59.312Z,28.97
2023-02-16T03:44:27.138Z,30.80
2023-02-16T03:46:56.435Z,28.67
2023-02-16T03:49:24.268Z,30.30
2023-02-16T03:51:52.206Z,30.47
2023-02-16T03:54:20.010Z,30.37
2023-02-16T03:56:48.075Z,30.03
2023-02-16T03:59:16.985Z,28.57
2023-02-16T04:01:44.858Z,29.90
2023-02-16T04:04:14.832Z,28.47
2023-02-16T04:06:42.782Z,29.50
2023-02-16T04:09:10.980Z,30.30
2023-02-16T04:11:56.105Z,29.87
2023-02-16T04:14:24.136Z,29.97
2023-02-16T04:16:52.076Z,29.57
2023-02-16T04:19:23.812Z,30.07
2023-02-16T04:21:52.781Z,29.33
2023-02-16T04:24:20.842Z,30.17
2023-02-16T04:26:49.465Z,28.60
2023-02-16T04:29:17.345Z,29.77
2023-02-16T04:31:49.655Z,31.70
2023-02-16T04:34:17.741Z,29.83
2023-02-16T04:36:47.094Z,30.37
2023-02-16T04:39:14.919Z,30.90
2023-02-16T04:41:42.736Z,31.50
2023-02-16T04:44:10.664Z,29.80
2023-02-16T04:46:38.685Z,30.17
2023-02-16T04:49:08.223Z,28.67
2023-02-16T04:51:36.183Z,30.73
2023-02-16T04:54:08.254Z,31.30
2023-02-16T04:56:36.131Z,30.37
2023-02-16T04:59:04.661Z,32.10
2023-02-16T05:01:32.457Z,30.57
2023-02-16T05:04:00.256Z,30.43
2023-02-16T05:06:28.089Z,31.67
2023-02-16T05:08:55.923Z,30.23
2023-02-16T05:11:54.250Z,30.83
2023-02-16T05:14:41.624Z,29.97
2023-02-16T05:17:10.250Z,29.83
2023-02-16T05:19:39.234Z,30.43
2023-02-16T05:22:07.075Z,30.70
2023-02-16T05:24:35.983Z,29.87
2023-02-16T05:27:07.708Z,31.07
2023-02-16T05:29:35.844Z,31.03
2023-02-16T05:32:04.957Z,30.63
2023-02-16T05:34:32.900Z,29.30
2023-02-16T05:37:00.681Z,32.27
2023-02-16T05:39:28.624Z,31.90
2023-02-16T05:41:56.574Z,32.07
2023-02-16T05:44:25.985Z,32.77
2023-02-16T05:46:53.890Z,33.00
2023-02-16T05:49:21.813Z,32.73
2023-02-16T05:51:49.686Z,31.50
2023-02-16T05:54:18.090Z,31.50
2023-02-16T05:56:47.158Z,32.23
2023-02-16T05:59:15.995Z,34.13
2023-02-16T06:01:50.470Z,33.67
2023-02-16T06:04:20.262Z,32.40
2023-02-16T06:06:48.670Z,32.43
2023-02-16T06:09:16.755Z,32.03
2023-02-16T06:11:44.620Z,32.93
2023-02-16T06:14:15.777Z,32.77
2023-02-16T06:16:47.258Z,32.77
2023-02-16T06:19:16.431Z,31.50
2023-02-16T06:21:44.559Z,32.80
2023-02-16T06:24:14.848Z,32.37
2023-02-16T06:26:42.881Z,32.23
2023-02-16T06:29:11.088Z,31.23
2023-02-16T06:31:39.338Z,30.60
2023-02-16T06:34:08.732Z,33.03
2023-02-16T06:36:36.619Z,31.63
2023-02-16T06:39:06.339Z,33.53
2023-02-16T06:41:37.708Z,33.80
2023-02-16T06:44:08.955Z,32.43
2023-02-16T06:46:37.091Z,32.27
2023-02-16T06:49:08.417Z,32.23
2023-02-16T06:51:37.658Z,34.60
2023-02-16T06:54:06.012Z,32.03
2023-02-16T06:56:34.399Z,32.07
2023-02-16T06:59:03.753Z,32.67
2023-02-16T07:01:32.101Z,32.33
2023-02-16T07:04:00.140Z,31.93
2023-02-16T07:06:29.654Z,32.77
2023-02-16T07:08:59.968Z,33.23
2023-02-16T07:11:27.854Z,32.73
2023-02-16T07:13:56.068Z,34.20
2023-02-16T07:16:24.070Z,32.87
2023-02-16T07:18:52.342Z,33.40
2023-02-16T07:21:20.282Z,31.87
2023-02-16T07:23:48.293Z,32.93
2023-02-16T07:26:21.014Z,32.07
2023-02-16T07:28:48.833Z,32.90
2023-02-16T07:31:18.372Z,34.00
2023-02-16T07:33:46.758Z,33.20
2023-02-16T07:36:18.233Z,30.80
2023-02-16T07:38:46.389Z,33.40
2023-02-16T07:41:16.093Z,34.00
2023-02-16T07:43:47.937Z,31.90
2023-02-16T07:46:16.454Z,31.97
2023-02-16T07:48:46.087Z,34.27
2023-02-16T07:51:14.685Z,32.83
2023-02-16T07:53:42.733Z,33.37
2023-02-16T07:56:10.601Z,34.10
2023-02-16T07:58:38.600Z,32.57
2023-02-16T08:01:15.443Z,32.43
2023-02-16T08:03:43.883Z,32.70
2023-02-16T08:06:12.248Z,32.60
2023-02-16T08:08:40.344Z,32.90
2023-02-16T08:11:11.980Z,31.77
2023-02-16T08:13:40.629Z,32.77
2023-02-16T08:16:15.821Z,34.00
2023-02-16T08:18:43.864Z,31.37
2023-02-16T08:21:15.078Z,32.90
2023-02-16T08:23:47.348Z,33.40
2023-02-16T08:26:18.108Z,31.60
2023-02-16T08:28:46.953Z,33.00
2023-02-16T08:31:20.587Z,31.50
2023-02-16T08:33:48.983Z,32.67
2023-02-16T08:36:20.587Z,30.73
2023-02-16T08:38:50.215Z,33.77
2023-02-16T08:41:18.757Z,32.27
2023-02-16T08:43:47.430Z,33.13
2023-02-16T08:46:17.788Z,32.20
2023-02-16T08:48:46.064Z,32.67
2023-02-16T08:51:18.530Z,31.27
2023-02-16T08:53:47.230Z,31.70
2023-02-16T08:56:16.784Z,30.93
2023-02-16T08:58:45.481Z,31.30
2023-02-16T09:01:15.135Z,32.53
2023-02-16T09:03:46.622Z,31.53
2023-02-16T09:06:17.152Z,32.23
2023-02-16T09:08:46.525Z,31.40
2023-02-16T09:11:16.988Z,32.47
2023-02-16T09:13:46.876Z,31.07
2023-02-16T09:16:17.518Z,31.27
2023-02-16T09:18:49.060Z,31.23
2023-02-16T09:21:19.356Z,31.77
2023-02-16T09:23:50.280Z,32.93
2023-02-16T09:26:20.070Z,33.93
2023-02-16T09:28:48.909Z,31.53
2023-02-16T09:31:25.342Z,33.13
2023-02-16T09:33:56.721Z,32.67
2023-02-16T09:36:25.388Z,31.80
2023-02-16T09:38:54.197Z,32.73
2023-02-16T09:41:33.201Z,33.10
2023-02-16T09:44:11.285Z,31.83
2023-02-16T09:46:41.314Z,32.50
2023-02-16T09:49:22.243Z,32.27
2023-02-16T09:51:56.572Z,31.93
2023-02-16T09:54:36.073Z,31.73
2023-02-16T09:57:11.172Z,31.93
2023-02-16T09:59:48.244Z,32.00
2023-02-16T10:02:46.711Z,31.97
2023-02-16T10:05:22.440Z,31.47
2023-02-16T10:08:04.736Z,31.77
2023-02-16T10:10:40.287Z,33.43
2023-02-16T10:13:18.924Z,32.47
2023-02-16T10:15:49.695Z,32.60
2023-02-16T10:18:30.686Z,31.53
2023-02-16T10:21:04.215Z,32.53
2023-02-16T10:23:45.758Z,32.67
2023-02-16T10:26:21.337Z,33.43
2023-02-16T10:28:51.179Z,33.17
2023-02-16T10:31:27.755Z,32.60
2023-02-16T10:34:15.773Z,34.30
2023-02-16T10:37:00.708Z,33.20
2023-02-16T10:39:36.966Z,32.37
2023-02-16T10:42:16.438Z,31.33
2023-02-16T10:44:50.125Z,32.97
2023-02-16T10:47:31.062Z,32.43
2023-02-16T10:49:59.493Z,32.03
2023-02-16T10:52:33.608Z,33.23
2023-02-16T10:55:02.150Z,32.43
2023-02-16T10:57:32.761Z,32.30
2023-02-16T11:00:02.867Z,32.73
2023-02-16T11:02:37.620Z,32.20
2023-02-16T11:05:30.976Z,33.77
2023-02-16T11:08:02.466Z,33.67
2023-02-16T11:10:42.101Z,31.93
2023-02-16T11:13:24.761Z,31.93
2023-02-16T11:15:55.924Z,33.10
2023-02-16T11:18:34.526Z,33.87
2023-02-16T11:21:04.102Z,32.20
2023-02-16T11:23:35.454Z,33.40
2023-02-16T11:26:07.589Z,32.50
2023-02-16T11:28:37.149Z,34.20
2023-02-16T11:31:15.478Z,32.53
2023-02-16T11:33:54.728Z,32.63
2023-02-16T11:36:29.100Z,32.43
2023-02-16T11:39:01.752Z,33.17
2023-02-16T11:41:33.321Z,34.53
2023-02-16T11:44:02.797Z,32.97
2023-02-16T11:46:40.559Z,33.47
2023-02-16T11:49:31.673Z,33.80
2023-02-16T11:51:59.959Z,35.03
2023-02-16T11:54:29.245Z,33.93
2023-02-16T11:57:06.730Z,35.40
2023-02-16T11:59:38.753Z,34.63
2023-02-16T12:02:29.134Z,33.43
2023-02-16T12:05:11.064Z,34.00
2023-02-16T12:07:46.881Z,32.87
2023-02-16T12:10:27.016Z,33.53
2023-02-16T12:13:03.870Z,33.43
2023-02-16T12:15:40.247Z,36.20
2023-02-16T12:18:22.370Z,35.37
2023-02-16T12:20:59.668Z,33.87
2023-02-16T12:23:36.483Z,34.00
2023-02-16T12:26:34.141Z,33.60
2023-02-16T12:29:16.296Z,32.10
2023-02-16T12:31:58.910Z,32.00
2023-02-16T12:34:31.029Z,33.53
2023-02-16T12:37:04.894Z,32.23
2023-02-16T12:39:41.481Z,30.93
2023-02-16T12:42:38.797Z,31.00
2023-02-16T12:45:13.953Z,31.73
2023-02-16T12:47:47.600Z,31.53
2023-02-16T12:50:21.150Z,32.00
2023-02-16T12:52:55.631Z,30.87
2023-02-16T12:55:29.130Z,31.52
2023-02-16T12:58:09.650Z,31.80
2023-02-16T13:00:45.600Z,30.35
2023-02-16T13:03:26.247Z,31.73
2023-02-16T13:06:05.154Z,30.53
2023-02-16T13:08:40.675Z,30.15
2023-02-16T13:11:17.337Z,30.47
2023-02-16T13:13:49.339Z,30.57
2023-02-16T13:16:30.172Z,30.40
2023-02-16T13:18:59.067Z,28.90
2023-02-16T13:21:51.518Z,27.37
2023-02-16T13:24:29.691Z,26.23
2023-02-16T13:27:15.773Z,27.87
2023-02-16T13:30:08.833Z,27.40
2023-02-16T13:33:00.152Z,27.53
2023-02-16T13:35:54.425Z,25.75
2023-02-16T13:39:01.016Z,25.77
2023-02-16T13:41:43.446Z,24.38
2023-02-16T13:44:15.849Z,25.37
2023-02-16T13:46:50.406Z,23.73
2023-02-16T13:49:36.216Z,25.03
2023-02-16T13:52:07.486Z,25.00
2023-02-16T13:54:39.881Z,24.05
2023-02-16T13:57:12.667Z,23.25
2023-02-16T14:00:04.908Z,24.55
2023-02-16T14:02:57.333Z,23.63
2023-02-16T14:05:29.382Z,22.27
2023-02-16T14:08:24.302Z,22.83
2023-02-16T14:11:10.561Z,22.25
2023-02-16T14:13:50.567Z,21.42
2023-02-16T14:16:34.956Z,22.77
2023-02-16T14:19:20.616Z,22.88
2023-02-16T14:21:50.431Z,21.52
2023-02-16T14:24:30.071Z,23.23
2023-02-16T14:27:00.274Z,21.20
2023-02-16T14:29:31.356Z,22.35
2023-02-16T14:32:04.924Z,22.50
2023-02-16T14:34:39.480Z,22.73
2023-02-16T14:37:32.582Z,22.77
2023-02-16T14:40:22.739Z,22.15
2023-02-16T14:42:57.696Z,21.52
2023-02-16T14:45:50.753Z,20.75
2023-02-16T14:48:34.354Z,20.77
2023-02-16T14:51:28.714Z,22.17
2023-02-16T14:54:11.810Z,20.75
2023-02-16T14:56:42.081Z,19.45
2023-02-16T14:59:24.622Z,20.65
2023-02-16T15:01:53.000Z,20.38
2023-02-16T15:04:31.960Z,20.85
2023-02-16T15:07:04.832Z,19.65
2023-02-16T15:09:34.803Z,18.05
2023-02-16T15:12:26.245Z,17.02
2023-02-16T15:14:56.860Z,15.98
2023-02-16T15:17:31.110Z,14.68
2023-02-16T15:20:07.962Z,15.32
2023-02-16T15:22:43.646Z,15.23
2023-02-16T15:25:23.732Z,15.87
2023-02-16T15:28:00.856Z,15.43
2023-02-16T15:30:31.211Z,15.68
2023-02-16T15:33:01.275Z,15.57
2023-02-16T15:35:34.650Z,14.93
2023-02-16T15:38:10.573Z,16.03
2023-02-16T15:40:38.682Z,15.37
2023-02-16T15:43:19.239Z,15.80
2023-02-16T15:45:52.575Z,16.23
2023-02-16T15:48:27.790Z,16.20
2023-02-16T15:51:00.257Z,16.57
2023-02-16T15:53:36.878Z,16.48
2023-02-16T15:56:17.931Z,17.17
2023-02-16T19:08:51.566Z,18.37
2023-02-16T19:11:19.795Z,20.03
2023-02-16T19:13:47.778Z,19.43
2023-02-16T19:16:17.241Z,20.27
2023-02-16T19:18:47.921Z,21.00
2023-02-16T19:21:18.452Z,19.53
2023-02-16T19:23:47.930Z,19.03
2023-02-16T19:26:18.857Z,19.40
2023-02-16T19:28:47.298Z,19.67
2023-02-16T19:31:20.950Z,19.23
2023-02-16T19:33:49.106Z,19.30
2023-02-16T19:36:18.033Z,18.70
2023-02-16T19:38:47.889Z,18.70
2023-02-16T19:41:20.578Z,18.47
2023-02-16T19:43:48.666Z,19.03
2023-02-16T19:46:16.800Z,19.60
2023-02-16T19:48:46.240Z,18.63
2023-02-16T19:51:16.748Z,18.43
2023-02-16T19:53:45.501Z,18.33
2023-02-16T19:56:16.010Z,18.20
2023-02-16T19:58:45.547Z,18.57
2023-02-16T20:01:15.829Z,17.97
2023-02-16T20:03:44.541Z,17.10
2023-02-16T20:06:15.799Z,17.70
2023-02-16T20:08:45.739Z,18.27
2023-02-16T20:11:14.663Z,17.43
2023-02-16T20:13:42.583Z,16.63
2023-02-16T20:16:13.740Z,15.90
2023-02-16T20:18:42.150Z,16.40
2023-02-16T20:21:12.253Z,16.27
2023-02-16T20:23:40.337Z,16.27
2023-02-16T20:26:10.529Z,15.57
2023-02-16T20:28:38.731Z,14.40
2023-02-16T20:31:13.824Z,13.90
2023-02-16T20:33:42.539Z,14.00
2023-02-16T20:36:11.103Z,14.43
2023-02-16T20:38:39.673Z,14.07
2023-02-16T20:41:07.712Z,13.10
2023-02-16T20:43:36.970Z,13.60
2023-02-16T20:46:07.211Z,12.70
2023-02-16T20:48:37.096Z,11.67
2023-02-16T20:51:07.185Z,11.80
2023-02-16T20:53:36.437Z,11.03
2023-02-16T20:56:07.365Z,11.13
2023-02-16T20:58:36.219Z,11.07
2023-02-16T21:01:04.947Z,9.20
2023-02-16T21:03:32.821Z,10.60
2023-02-16T21:06:02.012Z,10.03
2023-02-16T21:08:29.881Z,9.63
2023-02-16T21:10:57.785Z,9.80
2023-02-16T21:13:25.702Z,9.17
2023-02-16T21:15:53.908Z,8.90
2023-02-16T21:18:21.863Z,9.57
2023-02-16T21:20:49.743Z,9.10
2023-02-16T21:23:19.177Z,9.00
2023-02-16T21:25:47.188Z,8.70
2023-02-16T21:28:14.998Z,8.33
2023-02-16T21:30:43.239Z,9.33
2023-02-16T21:33:11.159Z,8.87
2023-02-16T21:35:39.074Z,8.47
2023-02-16T21:38:06.968Z,9.40
2023-02-16T21:40:54.510Z,11.13
2023-02-16T21:43:23.122Z,9.20
2023-02-16T21:45:59.974Z,9.67
2023-02-16T21:48:45.853Z,9.43
2023-02-16T21:51:14.822Z,9.00
2023-02-16T21:53:42.837Z,8.63
2023-02-16T21:56:22.945Z,9.70
2023-02-16T21:58:51.142Z,8.77
2023-02-16T22:01:23.786Z,8.53
2023-02-16T22:03:56.027Z,8.20
2023-02-16T22:06:25.345Z,8.63
2023-02-16T22:08:53.451Z,8.73
2023-02-16T22:11:22.892Z,8.77
2023-02-16T22:13:55.447Z,7.97
2023-02-16T22:16:24.074Z,7.77
2023-02-16T22:18:56.178Z,8.77
2023-02-16T22:21:24.275Z,7.67
2023-02-16T22:23:52.205Z,6.80
2023-02-16T22:26:24.324Z,6.77
2023-02-16T22:28:52.296Z,6.80
2023-02-16T22:31:22.126Z,7.40
2023-02-16T22:33:55.266Z,6.97
2023-02-16T22:36:23.245Z,7.57
2023-02-16T22:38:51.171Z,7.57
2023-02-16T22:41:18.996Z,6.80
2023-02-16T22:43:53.012Z,6.57
2023-02-16T22:46:20.999Z,6.47
2023-02-16T22:48:49.010Z,7.43
2023-02-16T22:51:18.067Z,7.13
2023-02-16T22:53:45.920Z,7.03
2023-02-16T22:56:16.379Z,7.30
2023-02-16T22:58:44.539Z,7.70
2023-02-16T23:01:16.126Z,8.30
2023-02-16T23:03:44.529Z,9.03
2023-02-16T23:06:14.758Z,8.87
2023-02-16T23:08:44.232Z,7.97
2023-02-16T23:11:15.296Z,8.53
2023-02-16T23:13:43.092Z,8.33
2023-02-16T23:16:16.295Z,8.93
2023-02-16T23:18:44.765Z,8.37
2023-02-16T23:21:18.220Z,8.77
2023-02-16T23:23:47.597Z,9.00
2023-02-16T23:26:16.399Z,9.13
2023-02-16T23:28:45.503Z,9.20
2023-02-16T23:31:16.949Z,10.10
2023-02-16T23:33:44.902Z,9.20
2023-02-16T23:36:12.904Z,8.77
2023-02-16T23:38:40.956Z,9.83
2023-02-16T23:41:14.594Z,10.17
2023-02-16T23:43:42.557Z,9.70
2023-02-16T23:46:11.130Z,10.27
2023-02-16T23:48:40.470Z,11.17
2023-02-16T23:51:10.048Z,12.07
2023-02-16T23:53:39.633Z,12.10
2023-02-16T23:56:12.190Z,12.13
2023-02-16T23:58:42.212Z,12.10
